Time;durP1;ratioP1;P1;durP2;ratioP2;P2;SDS_P1;SDS_P2;PMS_P1;PMS_P2;Temp;Humidity;BMP_temperature;BMP_pressure;BME280_temperature;BME280_humidity;BME280_pressure;Samples;Min_cycle;Max_cycle;Signal;HPM_P1;HPM_P2
2022/01/28 00:04:52;;;;;;;15.60;2.33;;;5.20;99.90;;;;;;4949330;28;20054;-80
2022/01/28 00:07:18;;;;;;;2.47;1.50;;;5.20;99.90;;;;;;4944549;28;20047;-79
2022/01/28 00:09:43;;;;;;;15.88;2.05;;;5.20;99.90;;;;;;4961864;28;20070;-80
2022/01/28 00:12:10;;;;;;;7.50;1.67;;;5.20;99.90;;;;;;4969919;28;20041;-80
2022/01/28 00:14:52;;;;;;;1.77;1.45;;;5.30;99.90;;;;;;4977013;28;20837;-79
2022/01/28 00:38:54;;;;;;;8.37;2.93;;;5.40;99.90;;;;;;4947602;28;20078;-79
2022/01/28 00:41:20;;;;;;;7.13;0.93;;;5.50;99.90;;;;;;4966630;28;20450;-79
2022/01/28 00:43:46;;;;;;;25.27;2.27;;;5.50;99.90;;;;;;4965972;28;20077;-79
2022/01/28 00:46:11;;;;;;;1.67;0.90;;;5.50;99.90;;;;;;4959382;28;20086;-79
2022/01/28 00:48:37;;;;;;;9.43;0.93;;;5.50;99.90;;;;;;4950117;28;20035;-79
2022/01/28 00:51:03;;;;;;;2.47;0.90;;;5.40;99.90;;;;;;4964227;28;20050;-79
2022/01/28 00:53:29;;;;;;;17.93;1.13;;;5.50;99.90;;;;;;4965906;28;20118;-79
2022/01/28 00:55:54;;;;;;;4.33;1.47;;;5.40;99.90;;;;;;4966071;28;20043;-80
2022/01/28 00:58:21;;;;;;;4.47;2.17;;;5.40;99.90;;;;;;4982717;28;20114;-80
2022/01/28 01:00:46;;;;;;;1.00;0.63;;;5.40;99.90;;;;;;4964212;28;20045;-79
2022/01/28 01:03:12;;;;;;;1.83;1.37;;;5.40;99.90;;;;;;4982963;28;20533;-79
2022/01/28 01:05:38;;;;;;;2.23;0.93;;;5.30;99.90;;;;;;4984342;28;20050;-79
2022/01/28 01:08:05;;;;;;;8.98;2.03;;;5.40;99.90;;;;;;4982497;28;20109;-79
2022/01/28 01:10:32;;;;;;;3.50;1.73;;;5.30;99.90;;;;;;4966414;28;20054;-79
2022/01/28 01:12:58;;;;;;;2.50;0.80;;;5.30;99.90;;;;;;4981147;28;20035;-80
2022/01/28 01:15:28;;;;;;;5.03;1.88;;;5.30;99.90;;;;;;4946928;28;20062;-80
2022/01/28 01:18:01;;;;;;;2.43;1.83;;;5.30;99.90;;;;;;4964545;28;20295;-79
2022/01/28 01:23:12;;;;;;;3.22;1.52;;;5.30;99.90;;;;;;4947328;28;20417;-79
2022/01/28 01:26:14;;;;;;;1.07;1.07;;;5.30;99.90;;;;;;4958113;28;20046;-80
2022/01/28 01:28:36;;;;;;;1.35;1.25;;;5.30;99.90;;;;;;4978846;28;20080;-79
2022/01/28 01:31:08;;;;;;;2.90;1.27;;;5.30;99.90;;;;;;4976300;28;20038;-80
2022/01/28 01:33:43;;;;;;;1.42;1.42;;;5.30;99.90;;;;;;4983895;28;20038;-79
2022/01/28 01:36:08;;;;;;;5.93;1.30;;;5.30;99.90;;;;;;4983051;28;20269;-79
2022/01/28 01:38:37;;;;;;;4.37;1.87;;;5.30;99.90;;;;;;4983308;28;20730;-80
2022/01/28 01:41:07;;;;;;;10.93;1.93;;;5.30;99.90;;;;;;4983243;28;20519;-79
2022/01/28 01:54:03;;;;;;;2.20;2.03;;;5.30;99.90;;;;;;4969820;28;20194;-79
2022/01/28 01:56:30;;;;;;;12.33;0.70;;;5.30;99.90;;;;;;4965889;28;20054;-80
2022/01/28 01:58:57;;;;;;;6.95;2.15;;;5.30;99.90;;;;;;4971912;28;20125;-79
2022/01/28 02:01:23;;;;;;;1.02;1.02;;;5.30;99.90;;;;;;4980844;28;20039;-79
2022/01/28 02:03:48;;;;;;;3.60;2.40;;;5.30;99.90;;;;;;4980221;28;20401;-79
2022/01/28 02:06:19;;;;;;;29.45;2.72;;;5.30;99.90;;;;;;4965259;28;20092;-79
2022/01/28 02:08:45;;;;;;;12.57;2.67;;;5.40;99.90;;;;;;4971613;28;20118;-80
2022/01/28 02:11:11;;;;;;;6.03;2.00;;;5.40;99.90;;;;;;4965155;28;20608;-80
2022/01/28 02:13:39;;;;;;;2.37;2.03;;;5.40;99.90;;;;;;4980268;28;20133;-79
2022/01/28 02:16:06;;;;;;;8.37;2.67;;;5.40;99.90;;;;;;4964931;28;20698;-79
2022/01/28 02:18:32;;;;;;;4.85;2.30;;;5.40;99.90;;;;;;4979907;28;20034;-79
2022/01/28 02:21:10;;;;;;;19.92;2.45;;;5.40;99.90;;;;;;4965331;28;20051;-79
2022/01/28 02:23:37;;;;;;;6.28;2.15;;;5.40;99.90;;;;;;4966398;28;20046;-79
2022/01/28 02:26:04;;;;;;;8.40;2.50;;;5.50;99.90;;;;;;4964988;28;20046;-79
2022/01/28 02:28:34;;;;;;;11.52;2.28;;;5.40;99.90;;;;;;4969373;28;20259;-80
2022/01/28 02:31:04;;;;;;;7.43;2.10;;;5.40;99.90;;;;;;4963912;28;20058;-80
2022/01/28 02:33:30;;;;;;;2.45;1.73;;;5.40;99.90;;;;;;4975451;28;20508;-80
2022/01/28 02:36:03;;;;;;;1.08;1.05;;;5.40;99.90;;;;;;4973827;28;20042;-79
2022/01/28 02:38:28;;;;;;;6.60;3.43;;;5.40;99.90;;;;;;4963489;28;20105;-80
2022/01/28 02:40:57;;;;;;;15.32;2.33;;;5.40;99.90;;;;;;4962527;28;20066;-79
2022/01/28 02:43:31;;;;;;;4.40;1.42;;;5.50;99.90;;;;;;4961314;28;20061;-80
2022/01/28 02:46:05;;;;;;;13.07;3.70;;;5.50;99.90;;;;;;4965939;28;20117;-80
2022/01/28 02:48:32;;;;;;;8.60;1.70;;;5.40;99.90;;;;;;4982268;28;20129;-80
2022/01/28 02:53:26;;;;;;;4.68;1.77;;;5.50;99.90;;;;;;4962801;28;20062;-80
2022/01/28 02:56:01;;;;;;;3.35;2.00;;;5.50;99.90;;;;;;4962606;28;20114;-79
2022/01/28 02:58:27;;;;;;;11.07;2.73;;;5.50;99.90;;;;;;4975492;28;20043;-80
2022/01/28 03:00:57;;;;;;;5.65;1.60;;;5.50;99.90;;;;;;4962245;28;20378;-80
2022/01/28 03:03:24;;;;;;;7.67;1.90;;;5.50;99.90;;;;;;4962582;28;20061;-80
2022/01/28 03:05:51;;;;;;;0.97;0.97;;;5.50;99.90;;;;;;4967250;28;20868;-79
2022/01/28 03:08:19;;;;;;;10.27;1.60;;;5.50;99.90;;;;;;4964026;28;20417;-80
2022/01/28 03:15:46;;;;;;;3.50;2.00;;;5.50;99.90;;;;;;4962068;28;20061;-79
2022/01/28 03:18:17;;;;;;;7.10;1.75;;;5.50;99.90;;;;;;4979749;28;20046;-80
2022/01/28 03:20:56;;;;;;;8.10;3.00;;;5.50;99.90;;;;;;4957096;28;20125;-79
2022/01/28 03:23:22;;;;;;;3.20;2.03;;;5.40;99.90;;;;;;4945505;28;20047;-80
2022/01/28 03:25:49;;;;;;;1.60;1.45;;;5.40;99.90;;;;;;4963510;28;20043;-80
2022/01/28 03:28:16;;;;;;;8.93;3.45;;;5.40;99.90;;;;;;4962071;28;20457;-79
2022/01/28 03:30:42;;;;;;;6.32;2.40;;;5.50;99.90;;;;;;4972887;28;20106;-80
2022/01/28 03:33:07;;;;;;;1.58;1.45;;;5.40;99.90;;;;;;4979922;28;20082;-79
2022/01/28 03:35:35;;;;;;;7.95;3.15;;;5.40;99.90;;;;;;4980743;28;20057;-79
2022/01/28 03:38:02;;;;;;;8.40;2.42;;;5.40;99.90;;;;;;4981111;28;20034;-80
2022/01/28 03:40:31;;;;;;;26.93;1.77;;;5.40;99.90;;;;;;4980890;28;20082;-79
2022/01/28 03:42:56;;;;;;;2.63;1.42;;;5.40;99.90;;;;;;4980593;28;20076;-80
2022/01/28 03:45:22;;;;;;;4.17;1.50;;;5.40;99.90;;;;;;4963214;28;20491;-79
2022/01/28 03:47:47;;;;;;;5.83;1.97;;;5.40;99.90;;;;;;4975927;28;20812;-79
2022/01/28 03:50:13;;;;;;;8.15;2.80;;;5.40;99.90;;;;;;4969008;28;20069;-79
2022/01/28 03:52:38;;;;;;;2.70;1.27;;;5.40;99.90;;;;;;4981070;28;20038;-79
2022/01/28 03:55:04;;;;;;;4.88;1.85;;;5.40;99.90;;;;;;4980647;28;20692;-79
2022/01/28 03:57:30;;;;;;;8.13;1.60;;;5.40;99.90;;;;;;4964730;28;20043;-79
2022/01/28 03:59:55;;;;;;;6.43;1.47;;;5.40;99.90;;;;;;4976994;28;20042;-80
2022/01/28 04:02:26;;;;;;;23.38;2.22;;;5.40;99.90;;;;;;4951924;28;20133;-79
2022/01/28 04:12:52;;;;;;;7.43;1.48;;;5.40;99.90;;;;;;4960050;28;20058;-79
2022/01/28 04:15:23;;;;;;;1.15;0.95;;;5.30;99.90;;;;;;4964909;28;20047;-80
2022/01/28 04:17:51;;;;;;;17.33;3.17;;;5.30;99.90;;;;;;4981030;28;20117;-80
2022/01/28 04:20:17;;;;;;;32.95;3.85;;;5.30;99.90;;;;;;4946496;28;20112;-80
2022/01/28 04:22:43;;;;;;;2.80;1.95;;;5.30;99.90;;;;;;4970587;28;20112;-80
2022/01/28 04:25:09;;;;;;;15.90;2.07;;;5.30;99.90;;;;;;4980366;28;20125;-79
2022/01/28 04:27:35;;;;;;;3.43;2.00;;;5.30;99.90;;;;;;4981053;28;20058;-79
2022/01/28 04:30:00;;;;;;;14.52;2.53;;;5.30;99.90;;;;;;4969814;28;20089;-79
2022/01/28 04:32:28;;;;;;;2.13;1.95;;;5.30;99.90;;;;;;4980808;28;20124;-79
2022/01/28 04:34:55;;;;;;;11.93;2.83;;;5.30;99.90;;;;;;4980177;28;20050;-80
2022/01/28 04:40:03;;;;;;;3.65;1.30;;;5.40;99.90;;;;;;4980774;28;20058;-79
2022/01/28 04:47:47;;;;;;;6.53;1.23;;;5.40;99.90;;;;;;4970720;28;20129;-80
2022/01/28 04:50:26;;;;;;;9.80;2.05;;;5.40;99.90;;;;;;4946600;28;20057;-79
2022/01/28 05:11:58;;;;;;;0.85;0.85;;;5.50;99.90;;;;;;4966988;28;20047;-79
2022/01/28 05:15:04;;;;;;;9.07;3.88;;;5.50;99.90;;;;;;4978793;28;20133;-79
2022/01/28 05:27:46;;;;;;;7.47;2.50;;;5.40;99.90;;;;;;4964370;28;20058;-79
2022/01/28 05:30:12;;;;;;;5.85;2.10;;;5.30;99.90;;;;;;4982214;28;20050;-79
2022/01/28 05:32:38;;;;;;;5.30;1.23;;;5.30;99.90;;;;;;4983734;28;20718;-79
2022/01/28 05:35:04;;;;;;;2.33;1.27;;;5.30;99.90;;;;;;4949462;28;20057;-80
2022/01/28 05:37:29;;;;;;;6.57;1.38;;;5.30;99.90;;;;;;4946857;28;20537;-80
2022/01/28 05:39:55;;;;;;;17.80;2.67;;;5.30;99.90;;;;;;4974048;28;20046;-80
2022/01/28 05:42:20;;;;;;;2.70;1.13;;;5.30;99.90;;;;;;4965839;28;20533;-79
2022/01/28 05:44:46;;;;;;;5.60;1.67;;;5.20;99.90;;;;;;4967103;28;20054;-80
2022/01/28 05:47:15;;;;;;;3.20;1.37;;;5.20;99.90;;;;;;4976322;28;20046;-79
2022/01/28 05:49:42;;;;;;;7.22;2.28;;;5.20;99.90;;;;;;4979274;28;20276;-80
2022/01/28 05:52:08;;;;;;;8.02;2.42;;;5.20;99.90;;;;;;4963065;28;20497;-80
2022/01/28 05:54:34;;;;;;;15.57;3.10;;;5.10;99.90;;;;;;4970905;28;20053;-79
2022/01/28 05:57:00;;;;;;;2.85;1.63;;;5.20;99.90;;;;;;4981325;28;20408;-80
2022/01/28 05:59:25;;;;;;;12.20;1.95;;;5.20;99.90;;;;;;4972977;28;20051;-80
2022/01/28 06:01:51;;;;;;;9.55;1.75;;;5.20;99.90;;;;;;4969924;28;20042;-79
2022/01/28 06:04:17;;;;;;;9.80;1.23;;;5.10;99.90;;;;;;4972400;28;20046;-80
2022/01/28 06:06:43;;;;;;;7.45;2.22;;;5.10;99.90;;;;;;4975140;28;20050;-80
2022/01/28 06:09:08;;;;;;;5.88;1.20;;;5.10;99.90;;;;;;4982833;28;20058;-80
2022/01/28 06:11:34;;;;;;;8.80;2.83;;;5.10;99.90;;;;;;4982141;28;20524;-81
2022/01/28 06:13:59;;;;;;;3.10;1.05;;;5.10;99.90;;;;;;4963228;28;20050;-80
2022/01/28 06:16:25;;;;;;;6.95;2.13;;;5.10;99.90;;;;;;4967204;28;20047;-81
2022/01/28 06:18:50;;;;;;;13.82;3.35;;;5.10;99.90;;;;;;4970867;28;20402;-81
2022/01/28 06:21:17;;;;;;;16.03;3.60;;;5.10;99.90;;;;;;4974173;28;20039;-80
2022/01/28 06:23:43;;;;;;;2.65;1.80;;;5.10;99.90;;;;;;4975605;28;20039;-80
2022/01/28 06:26:08;;;;;;;1.03;0.93;;;5.00;99.90;;;;;;4977786;28;20608;-79
2022/01/28 06:28:34;;;;;;;18.43;1.43;;;5.10;99.90;;;;;;4961397;28;20504;-79
2022/01/28 06:31:00;;;;;;;1.88;0.85;;;5.00;99.90;;;;;;4948941;28;20786;-80
2022/01/28 06:33:25;;;;;;;7.75;2.25;;;5.00;99.90;;;;;;4982468;28;20435;-79
2022/01/28 06:35:51;;;;;;;8.73;2.10;;;5.00;99.90;;;;;;4964918;28;20038;-79
2022/01/28 06:38:17;;;;;;;11.57;2.43;;;5.00;99.90;;;;;;4973141;28;20481;-81
2022/01/28 06:40:43;;;;;;;10.65;4.53;;;5.00;99.90;;;;;;4950256;28;20074;-81
2022/01/28 06:43:11;;;;;;;7.67;2.30;;;5.00;99.90;;;;;;4971728;28;20050;-76
2022/01/28 06:45:40;;;;;;;6.03;2.42;;;5.00;99.90;;;;;;4964135;28;20153;-79
2022/01/28 06:48:07;;;;;;;14.73;1.40;;;5.00;99.90;;;;;;4970154;28;20121;-80
2022/01/28 06:50:33;;;;;;;12.23;0.93;;;5.00;99.90;;;;;;4977188;28;20043;-80
2022/01/28 06:53:02;;;;;;;1.95;1.52;;;4.90;99.90;;;;;;4970346;28;20035;-80
2022/01/28 06:55:28;;;;;;;8.60;1.83;;;4.90;99.90;;;;;;4962353;28;20100;-81
2022/01/28 06:57:56;;;;;;;3.83;2.77;;;4.90;99.90;;;;;;4969066;28;20070;-79
2022/01/28 07:00:21;;;;;;;2.00;1.57;;;4.90;99.90;;;;;;4978334;28;20073;-79
2022/01/28 07:02:48;;;;;;;4.73;1.40;;;4.90;99.90;;;;;;4967653;28;20039;-79
2022/01/28 07:05:14;;;;;;;26.27;1.48;;;4.90;99.90;;;;;;4974701;28;20448;-80
2022/01/28 07:07:40;;;;;;;17.83;1.47;;;4.90;99.90;;;;;;4959753;28;20054;-80
2022/01/28 07:10:05;;;;;;;0.85;0.85;;;4.90;99.90;;;;;;4961812;28;20466;-80
2022/01/28 07:12:31;;;;;;;3.77;1.73;;;4.80;99.90;;;;;;4979896;28;20034;-80
2022/01/28 07:14:56;;;;;;;7.77;1.83;;;4.80;99.90;;;;;;4961784;28;20038;-80
2022/01/28 07:17:22;;;;;;;7.57;2.20;;;4.80;99.90;;;;;;4980921;28;20042;-80
2022/01/28 07:19:47;;;;;;;2.63;1.77;;;4.80;99.90;;;;;;4962908;28;20054;-80
2022/01/28 07:22:13;;;;;;;20.95;1.52;;;4.80;99.90;;;;;;4964041;28;20042;-80
2022/01/28 07:24:39;;;;;;;7.27;1.87;;;4.80;99.90;;;;;;4980280;28;20448;-80
2022/01/28 07:27:05;;;;;;;7.77;1.73;;;4.80;99.90;;;;;;4981051;28;20030;-80
2022/01/28 07:29:33;;;;;;;3.70;2.10;;;4.80;99.90;;;;;;4960712;28;20208;-80
2022/01/28 07:31:59;;;;;;;3.53;2.17;;;4.80;99.90;;;;;;4961128;28;20478;-80
2022/01/28 07:34:24;;;;;;;2.03;1.87;;;4.70;99.90;;;;;;4960911;28;20072;-80
2022/01/28 07:36:50;;;;;;;11.70;1.80;;;4.70;99.90;;;;;;4943556;28;20547;-80
2022/01/28 07:39:16;;;;;;;7.93;0.97;;;4.70;99.90;;;;;;4959538;28;20039;-80
2022/01/28 07:41:42;;;;;;;16.47;2.23;;;4.70;99.90;;;;;;4961658;28;20046;-80
2022/01/28 07:44:08;;;;;;;14.13;3.13;;;4.70;99.90;;;;;;4959357;28;20070;-80
2022/01/28 07:46:34;;;;;;;11.60;1.43;;;4.70;99.90;;;;;;4961306;28;20039;-80
2022/01/28 07:49:00;;;;;;;12.63;1.80;;;4.70;99.90;;;;;;4959855;28;20567;-80
2022/01/28 07:51:25;;;;;;;4.23;1.83;;;4.70;99.90;;;;;;4961178;28;20054;-80
2022/01/28 07:53:51;;;;;;;7.60;2.83;;;4.70;99.90;;;;;;4960088;28;20043;-80
2022/01/28 07:56:17;;;;;;;36.87;5.13;;;4.70;99.90;;;;;;4960818;28;20042;-80
2022/01/28 07:58:42;;;;;;;4.07;1.63;;;4.70;99.90;;;;;;4958798;28;20053;-80
2022/01/28 08:01:08;;;;;;;10.43;2.00;;;4.70;99.90;;;;;;4960299;28;20556;-79
2022/01/28 08:03:34;;;;;;;10.77;2.45;;;4.70;99.90;;;;;;4959119;28;20688;-79
2022/01/28 08:06:00;;;;;;;7.50;1.67;;;4.70;99.90;;;;;;4960746;28;20043;-82
2022/01/28 08:08:25;;;;;;;13.10;3.03;;;4.70;99.90;;;;;;4959850;28;20058;-80
2022/01/28 08:10:51;;;;;;;3.40;2.03;;;4.70;99.90;;;;;;4960786;28;20055;-80
2022/01/28 08:13:17;;;;;;;0.70;0.70;;;4.70;99.90;;;;;;4959201;28;20423;-80
2022/01/28 08:15:43;;;;;;;28.40;2.03;;;4.80;99.90;;;;;;4943667;28;20062;-80
2022/01/28 08:18:09;;;;;;;5.37;3.30;;;4.80;99.90;;;;;;4957093;28;20721;-82
2022/01/28 08:20:35;;;;;;;14.73;2.83;;;4.80;99.90;;;;;;4947619;28;20043;-82
2022/01/28 08:23:03;;;;;;;6.90;2.37;;;4.80;99.90;;;;;;4969648;28;20049;-87
2022/01/28 08:25:32;;;;;;;17.93;2.00;;;4.80;99.90;;;;;;4966758;28;20043;-96
2022/01/28 08:27:57;;;;;;;13.63;3.10;;;4.80;99.90;;;;;;4970759;28;20167;-96
2022/01/28 08:30:25;;;;;;;3.40;2.63;;;4.80;99.90;;;;;;4957900;28;20590;-93
2022/01/28 08:32:51;;;;;;;6.33;2.10;;;4.80;99.90;;;;;;4951274;28;20034;-93
2022/01/28 08:35:18;;;;;;;34.28;5.18;;;4.80;99.90;;;;;;4932258;28;20035;-93
2022/01/28 08:37:44;;;;;;;4.03;2.10;;;4.70;99.90;;;;;;4927886;28;20039;-87
2022/01/28 08:40:12;;;;;;;1.07;0.80;;;4.70;99.90;;;;;;4948804;28;20034;-87
2022/01/28 08:42:37;;;;;;;2.83;1.83;;;4.70;99.90;;;;;;4967006;28;20035;-85
2022/01/28 08:45:04;;;;;;;10.20;1.73;;;4.70;99.90;;;;;;4957977;28;21312;-89
2022/01/28 08:47:29;;;;;;;10.27;2.77;;;4.70;99.90;;;;;;4958454;28;20043;-91
2022/01/28 08:49:58;;;;;;;5.37;2.93;;;4.70;99.90;;;;;;4950485;28;20057;-96
2022/01/28 08:52:46;;;;;;;15.43;5.23;;;4.80;99.90;;;;;;4966698;28;20039;-94
2022/01/28 08:55:15;;;;;;;16.80;2.80;;;4.70;99.90;;;;;;4954871;28;20102;-85
2022/01/28 08:57:44;;;;;;;9.70;3.50;;;4.70;99.90;;;;;;4947144;28;20078;-85
2022/01/28 09:00:17;;;;;;;14.83;1.83;;;4.80;99.90;;;;;;4950638;28;20137;-85
2022/01/28 09:02:44;;;;;;;7.50;1.70;;;4.80;99.90;;;;;;4953664;28;20072;-94
2022/01/28 09:05:13;;;;;;;11.70;3.10;;;4.80;99.90;;;;;;4951230;28;20046;-88
2022/01/28 09:07:39;;;;;;;2.77;1.87;;;4.80;99.90;;;;;;4986457;28;20409;-96
2022/01/28 09:10:18;;;;;;;15.98;3.28;;;4.90;99.90;;;;;;5003133;23;20288;-95
2022/01/28 09:13:09;;;;;;;1.70;1.60;;;4.90;99.90;;;;;;4931519;28;20043;-96
2022/01/28 09:18:09;;;;;;;6.83;2.50;;;5.00;99.90;;;;;;5000059;23;19925;-96
2022/01/28 09:20:36;;;;;;;8.20;1.23;;;5.00;99.90;;;;;;4930565;28;20097;-96
2022/01/28 09:23:09;;;;;;;10.57;1.77;;;5.00;99.90;;;;;;4950362;28;20383;-96
2022/01/28 09:25:35;;;;;;;8.30;3.53;;;5.10;99.90;;;;;;4952306;28;20346;-95
2022/01/28 09:28:01;;;;;;;12.45;1.73;;;5.00;99.90;;;;;;4951763;28;20323;-91
2022/01/28 09:30:27;;;;;;;18.23;2.72;;;5.10;99.90;;;;;;4951197;28;20062;-96
2022/01/28 09:32:56;;;;;;;1.15;1.15;;;5.20;99.90;;;;;;4949079;28;20047;-82
2022/01/28 09:35:22;;;;;;;12.40;2.43;;;5.20;99.90;;;;;;4963861;28;20053;-82
2022/01/28 09:37:49;;;;;;;6.40;2.00;;;5.20;99.90;;;;;;4962241;28;20050;-82
2022/01/28 09:40:15;;;;;;;9.77;2.78;;;5.20;99.90;;;;;;4966559;28;20054;-82
2022/01/28 09:42:43;;;;;;;1.70;1.60;;;5.20;99.90;;;;;;4980744;28;20421;-83
2022/01/28 09:45:10;;;;;;;15.23;1.70;;;5.20;99.90;;;;;;4965251;28;20065;-82
2022/01/28 09:47:38;;;;;;;46.63;2.90;;;5.20;99.90;;;;;;4982646;28;20138;-82
2022/01/28 09:50:06;;;;;;;1.10;0.70;;;5.20;99.90;;;;;;4982199;28;20291;-82
2022/01/28 09:52:32;;;;;;;13.33;2.40;;;5.20;99.90;;;;;;4976940;28;20569;-82
2022/01/28 09:54:58;;;;;;;4.85;2.03;;;5.30;99.90;;;;;;4969043;28;20078;-82
2022/01/28 09:57:24;;;;;;;2.97;1.43;;;5.30;99.90;;;;;;4963346;28;20662;-82
2022/01/28 09:59:49;;;;;;;1.80;1.40;;;5.40;99.90;;;;;;4962052;28;20122;-83
2022/01/28 10:02:15;;;;;;;10.57;2.65;;;5.40;99.90;;;;;;4965555;28;20042;-83
2022/01/28 10:04:41;;;;;;;6.88;2.65;;;5.40;99.90;;;;;;4971873;28;20416;-82
2022/01/28 10:07:15;;;;;;;23.60;2.85;;;5.50;99.90;;;;;;4965760;28;20035;-82
2022/01/28 10:09:58;;;;;;;15.13;0.67;;;5.50;99.90;;;;;;4981606;28;20137;-82
2022/01/28 10:12:40;;;;;;;2.00;1.65;;;5.50;99.90;;;;;;4981614;28;20049;-82
2022/01/28 10:15:20;;;;;;;1.27;0.98;;;5.50;99.90;;;;;;4963282;28;20085;-82
2022/01/28 10:17:51;;;;;;;15.10;1.88;;;5.60;99.90;;;;;;4973898;28;20387;-79
2022/01/28 10:20:16;;;;;;;13.20;2.80;;;5.60;99.90;;;;;;4960311;28;20069;-77
2022/01/28 10:22:54;;;;;;;10.80;1.92;;;5.60;99.90;;;;;;4966283;28;20320;-78
2022/01/28 10:25:32;;;;;;;20.35;1.58;;;5.60;99.90;;;;;;4944916;28;20513;-78
2022/01/28 10:28:04;;;;;;;3.60;1.65;;;5.60;99.90;;;;;;4960982;28;20046;-78
2022/01/28 10:30:34;;;;;;;0.97;0.93;;;5.60;99.90;;;;;;4956086;28;20050;-78
2022/01/28 10:33:18;;;;;;;1.42;1.30;;;5.60;99.90;;;;;;4962301;28;20372;-78
2022/01/28 10:35:54;;;;;;;6.40;2.83;;;5.70;99.90;;;;;;4944584;28;20513;-79
2022/01/28 10:38:33;;;;;;;2.38;1.60;;;5.70;99.90;;;;;;4943941;28;20501;-78
2022/01/28 10:41:08;;;;;;;22.58;2.60;;;5.70;99.90;;;;;;4962026;28;20057;-78
2022/01/28 10:43:49;;;;;;;0.75;0.38;;;5.70;99.90;;;;;;4943367;28;20973;-78
2022/01/28 10:46:22;;;;;;;9.15;1.77;;;5.80;99.90;;;;;;4962121;28;20077;-78
2022/01/28 10:48:49;;;;;;;4.60;3.13;;;5.80;99.90;;;;;;4944488;28;20060;-79
2022/01/28 10:51:17;;;;;;;5.05;2.05;;;5.80;99.90;;;;;;4944108;28;20115;-78
2022/01/28 10:54:00;;;;;;;7.82;1.80;;;5.90;99.90;;;;;;4962210;28;20038;-78
2022/01/28 10:56:26;;;;;;;2.22;1.50;;;5.90;99.90;;;;;;4944242;28;20097;-78
2022/01/28 10:58:52;;;;;;;12.25;1.40;;;6.00;99.90;;;;;;4960810;28;20043;-78
2022/01/28 11:01:18;;;;;;;5.03;1.88;;;6.00;99.90;;;;;;4961647;28;20414;-78
2022/01/28 11:03:44;;;;;;;6.82;1.40;;;6.00;99.90;;;;;;4962275;28;20122;-78
2022/01/28 11:06:10;;;;;;;9.60;1.63;;;6.00;99.90;;;;;;4944877;28;20738;-79
2022/01/28 11:08:35;;;;;;;1.20;1.10;;;6.10;99.90;;;;;;4961658;28;20053;-78
2022/01/28 11:11:01;;;;;;;10.23;2.15;;;6.10;99.90;;;;;;4960735;28;20042;-78
2022/01/28 11:13:27;;;;;;;6.05;1.55;;;6.10;99.90;;;;;;4960862;28;20081;-78
2022/01/28 11:15:54;;;;;;;0.55;0.55;;;6.10;99.90;;;;;;4960380;28;20533;-78
2022/01/28 11:18:20;;;;;;;4.43;1.65;;;6.10;99.90;;;;;;4961561;28;20054;-78
2022/01/28 11:20:49;;;;;;;0.90;0.90;;;6.10;99.90;;;;;;4943410;28;20043;-79
2022/01/28 11:23:30;;;;;;;10.68;2.53;;;6.10;99.90;;;;;;4959750;28;20113;-79
2022/01/28 11:26:18;;;;;;;12.88;1.77;;;6.10;99.90;;;;;;4960648;28;20769;-78
2022/01/28 11:28:47;;;;;;;18.50;2.33;;;6.10;99.90;;;;;;4943543;28;20402;-78
2022/01/28 11:31:14;;;;;;;5.45;2.67;;;6.10;99.90;;;;;;4944931;28;20055;-78
2022/01/28 11:33:51;;;;;;;0.98;0.95;;;6.10;99.90;;;;;;4981146;28;20046;-79
2022/01/28 11:36:32;;;;;;;6.50;2.08;;;6.10;99.90;;;;;;4963319;28;20136;-79
2022/01/28 11:39:07;;;;;;;15.93;2.10;;;6.10;99.90;;;;;;4980012;28;20524;-78
2022/01/28 11:41:33;;;;;;;9.77;2.58;;;6.10;99.90;;;;;;4980194;28;20857;-79
2022/01/28 11:43:59;;;;;;;14.98;2.25;;;6.10;99.90;;;;;;4978526;28;20042;-79
2022/01/28 11:46:27;;;;;;;2.20;1.55;;;6.10;99.90;;;;;;4962539;28;20057;-79
2022/01/28 11:48:55;;;;;;;9.65;1.63;;;6.10;99.90;;;;;;4962430;28;20531;-79
2022/01/28 11:51:44;;;;;;;8.63;1.63;;;6.10;99.90;;;;;;4980336;28;20184;-79
2022/01/28 11:54:13;;;;;;;1.17;1.08;;;6.20;99.90;;;;;;4962722;28;20124;-78
2022/01/28 11:56:57;;;;;;;7.15;1.95;;;6.20;99.90;;;;;;4980121;28;20057;-78
2022/01/28 11:59:28;;;;;;;2.08;1.42;;;6.20;99.90;;;;;;4978978;28;20044;-79
2022/01/28 12:01:53;;;;;;;16.85;2.55;;;6.20;99.90;;;;;;4980156;28;20085;-79
2022/01/28 12:04:36;;;;;;;6.80;1.60;;;6.20;99.90;;;;;;4979754;28;20513;-79
2022/01/28 12:07:23;;;;;;;2.25;2.05;;;6.20;99.90;;;;;;4961834;28;20042;-79
2022/01/28 12:09:51;;;;;;;13.48;1.20;;;6.20;99.90;;;;;;4961502;28;20060;-78
2022/01/28 12:12:45;;;;;;;4.30;1.55;;;6.30;99.90;;;;;;4962507;28;20108;-78
2022/01/28 12:15:17;;;;;;;2.90;1.65;;;6.20;99.90;;;;;;4974451;28;20050;-78
2022/01/28 12:17:45;;;;;;;12.38;2.75;;;6.30;99.90;;;;;;4963209;28;20176;-78
2022/01/28 12:20:22;;;;;;;10.98;1.95;;;6.30;99.90;;;;;;4960871;28;20043;-80
2022/01/28 12:23:02;;;;;;;3.47;1.48;;;6.30;99.90;;;;;;4977958;28;20331;-79
2022/01/28 12:25:49;;;;;;;6.20;2.25;;;6.30;99.90;;;;;;4954593;28;20082;-79
2022/01/28 12:28:23;;;;;;;1.80;1.30;;;6.30;99.90;;;;;;4963347;28;20035;-80
2022/01/28 12:31:24;;;;;;;3.50;1.35;;;6.30;99.90;;;;;;4975218;28;20050;-79
2022/01/28 12:34:02;;;;;;;7.28;1.85;;;6.30;99.90;;;;;;4983506;28;20121;-80
2022/01/28 12:36:32;;;;;;;1.83;0.93;;;6.30;99.90;;;;;;4965873;28;20108;-79
2022/01/28 12:39:20;;;;;;;11.60;1.63;;;6.30;99.90;;;;;;4983656;28;20057;-78
2022/01/28 12:42:02;;;;;;;17.33;1.67;;;6.40;99.90;;;;;;4957444;28;20050;-78
2022/01/28 12:44:31;;;;;;;0.28;0.28;;;6.40;99.90;;;;;;4965019;28;20603;-78
2022/01/28 12:46:59;;;;;;;15.57;2.22;;;6.40;99.90;;;;;;4983609;28;20430;-78
2022/01/28 12:49:30;;;;;;;4.28;1.15;;;6.40;99.90;;;;;;4966623;28;20077;-78
2022/01/28 12:51:59;;;;;;;3.05;1.23;;;6.40;99.90;;;;;;4983477;28;20045;-78
2022/01/28 12:54:40;;;;;;;9.52;2.25;;;6.40;99.90;;;;;;4984116;28;20046;-79
2022/01/28 12:57:08;;;;;;;2.03;1.40;;;6.50;99.90;;;;;;4983242;28;20497;-79
2022/01/28 12:59:34;;;;;;;5.40;1.20;;;6.50;99.90;;;;;;4982699;28;20050;-79
2022/01/28 13:02:00;;;;;;;7.72;1.50;;;6.50;99.90;;;;;;4983820;28;20054;-79
2022/01/28 13:04:47;;;;;;;6.93;1.30;;;6.50;99.90;;;;;;4983274;28;20065;-78
2022/01/28 13:09:53;;;;;;;1.50;1.40;;;6.50;99.90;;;;;;4983243;28;20054;-78
2022/01/28 13:12:24;;;;;;;13.68;2.10;;;6.50;99.90;;;;;;4982841;28;20050;-78
2022/01/28 13:14:50;;;;;;;6.85;1.80;;;6.50;99.90;;;;;;4983666;28;20034;-79
2022/01/28 13:17:23;;;;;;;1.52;0.85;;;6.50;99.90;;;;;;4982271;28;20058;-78
2022/01/28 13:20:00;;;;;;;1.75;0.93;;;6.50;99.90;;;;;;4982965;28;20046;-78
2022/01/28 13:22:28;;;;;;;7.07;1.50;;;6.50;99.90;;;;;;4983523;28;20086;-78
2022/01/28 13:24:54;;;;;;;27.35;2.10;;;6.60;99.90;;;;;;4965386;28;20379;-79
2022/01/28 13:27:21;;;;;;;1.23;1.23;;;6.60;99.90;;;;;;4976433;28;20460;-79
2022/01/28 13:29:53;;;;;;;15.68;1.83;;;6.60;99.90;;;;;;4970181;28;20043;-79
2022/01/28 13:32:24;;;;;;;2.55;1.55;;;6.60;99.90;;;;;;4970291;28;20147;-78
2022/01/28 13:34:51;;;;;;;8.30;1.20;;;6.60;99.90;;;;;;4954095;28;20505;-78
2022/01/28 13:37:49;;;;;;;11.15;1.23;;;6.60;99.90;;;;;;4973849;28;20034;-77
2022/01/28 13:40:18;;;;;;;2.05;1.23;;;6.60;99.90;;;;;;4958618;28;20046;-79
2022/01/28 13:43:07;;;;;;;3.65;1.02;;;6.60;99.90;;;;;;4976211;28;20094;-80
2022/01/28 13:45:50;;;;;;;8.52;0.82;;;6.60;99.90;;;;;;4968984;28;20047;-79
2022/01/28 13:48:20;;;;;;;2.78;1.42;;;6.60;99.90;;;;;;4962053;28;20401;-78
2022/01/28 13:50:49;;;;;;;7.22;1.02;;;6.60;99.90;;;;;;4976514;28;20034;-78
2022/01/28 13:56:02;;;;;;;3.28;1.25;;;6.70;99.90;;;;;;4955033;28;20046;-79
2022/01/28 13:58:29;;;;;;;5.90;1.05;;;6.70;99.90;;;;;;4937697;28;20504;-87
2022/01/28 14:00:57;;;;;;;10.57;1.75;;;6.70;99.90;;;;;;4963730;28;20077;-80
2022/01/28 14:03:26;;;;;;;12.45;2.05;;;6.70;99.90;;;;;;4963683;28;20696;-81
2022/01/28 14:06:01;;;;;;;5.90;1.17;;;6.70;99.90;;;;;;4962758;28;20065;-81
2022/01/28 14:08:41;;;;;;;4.28;1.00;;;6.70;99.90;;;;;;4963120;28;20046;-78
2022/01/28 14:11:28;;;;;;;1.25;0.77;;;6.70;99.90;;;;;;4963644;28;20043;-83
2022/01/28 14:14:15;;;;;;;9.65;1.75;;;6.70;99.90;;;;;;4943379;28;20046;-83
2022/01/28 14:16:47;;;;;;;5.88;2.17;;;6.70;99.90;;;;;;4945471;28;20057;-82
2022/01/28 14:19:13;;;;;;;6.25;2.33;;;6.70;99.90;;;;;;4945450;28;20057;-83
2022/01/28 14:21:41;;;;;;;6.18;1.15;;;6.70;99.90;;;;;;4962849;28;20065;-83
2022/01/28 14:24:07;;;;;;;0.93;0.93;;;6.70;99.90;;;;;;4961797;28;20043;-82
2022/01/28 14:26:40;;;;;;;0.28;0.28;;;6.60;99.90;;;;;;4962437;28;20070;-83
2022/01/28 14:29:21;;;;;;;20.40;1.63;;;6.60;99.90;;;;;;4959575;28;20486;-82
2022/01/28 14:31:47;;;;;;;0.70;0.70;;;6.70;99.90;;;;;;4963476;28;20093;-82
2022/01/28 14:34:13;;;;;;;4.75;0.82;;;6.60;99.90;;;;;;4982154;28;20594;-82
2022/01/28 14:36:40;;;;;;;0.75;0.75;;;6.60;99.90;;;;;;4963388;28;20137;-82
2022/01/28 14:39:10;;;;;;;3.45;1.00;;;6.70;99.90;;;;;;4981453;28;20137;-82
2022/01/28 14:41:36;;;;;;;0.40;0.40;;;6.60;99.90;;;;;;4981066;28;20030;-82
2022/01/28 14:44:03;;;;;;;4.38;0.73;;;6.70;99.90;;;;;;4962450;28;20485;-82